sensor_id;sensor_type;location;lat;lon;timestamp;temperature;humidity
40960;DHT22;27842;52.272;8.052;2023-04-06T00:00:43;7.50;66.40
40960;DHT22;27842;52.272;8.052;2023-04-06T00:03:09;7.50;66.50
40960;DHT22;27842;52.272;8.052;2023-04-06T00:05:34;7.40;66.60
40960;DHT22;27842;52.272;8.052;2023-04-06T00:08:00;7.40;66.60
40960;DHT22;27842;52.272;8.052;2023-04-06T00:10:26;7.40;66.60
40960;DHT22;27842;52.272;8.052;2023-04-06T00:12:52;7.40;67.40
40960;DHT22;27842;52.272;8.052;2023-04-06T00:15:17;7.40;66.80
40960;DHT22;27842;52.272;8.052;2023-04-06T00:17:43;7.30;66.80
40960;DHT22;27842;52.272;8.052;2023-04-06T00:20:09;7.30;66.80
40960;DHT22;27842;52.272;8.052;2023-04-06T00:22:35;7.30;66.80
40960;DHT22;27842;52.272;8.052;2023-04-06T00:25:01;7.30;66.80
40960;DHT22;27842;52.272;8.052;2023-04-06T00:27:26;7.30;66.80
40960;DHT22;27842;52.272;8.052;2023-04-06T00:29:52;7.30;67.00
40960;DHT22;27842;52.272;8.052;2023-04-06T00:32:18;7.20;67.10
40960;DHT22;27842;52.272;8.052;2023-04-06T00:34:43;7.20;67.20
40960;DHT22;27842;52.272;8.052;2023-04-06T00:37:10;7.20;67.10
40960;DHT22;27842;52.272;8.052;2023-04-06T00:39:35;7.20;67.30
40960;DHT22;27842;52.272;8.052;2023-04-06T00:42:09;7.20;67.30
40960;DHT22;27842;52.272;8.052;2023-04-06T00:44:35;7.10;67.40
40960;DHT22;27842;52.272;8.052;2023-04-06T00:47:01;7.10;67.50
40960;DHT22;27842;52.272;8.052;2023-04-06T00:49:27;7.00;67.60
40960;DHT22;27842;52.272;8.052;2023-04-06T00:51:52;7.00;67.70
40960;DHT22;27842;52.272;8.052;2023-04-06T00:54:18;7.00;67.90
40960;DHT22;27842;52.272;8.052;2023-04-06T00:56:45;6.90;67.90
40960;DHT22;27842;52.272;8.052;2023-04-06T00:59:11;6.90;68.00
40960;DHT22;27842;52.272;8.052;2023-04-06T01:01:37;6.90;68.10
40960;DHT22;27842;52.272;8.052;2023-04-06T01:04:03;6.90;68.00
40960;DHT22;27842;52.272;8.052;2023-04-06T01:06:29;6.90;68.00
40960;DHT22;27842;52.272;8.052;2023-04-06T01:08:54;6.90;68.00
40960;DHT22;27842;52.272;8.052;2023-04-06T01:11:20;6.90;68.10
40960;DHT22;27842;52.272;8.052;2023-04-06T01:13:46;6.90;68.10
40960;DHT22;27842;52.272;8.052;2023-04-06T01:16:11;6.90;68.20
40960;DHT22;27842;52.272;8.052;2023-04-06T01:18:40;6.90;68.20
40960;DHT22;27842;52.272;8.052;2023-04-06T01:21:07;6.80;68.30
40960;DHT22;27842;52.272;8.052;2023-04-06T01:23:34;6.80;68.30
40960;DHT22;27842;52.272;8.052;2023-04-06T01:26:00;6.80;68.30
40960;DHT22;27842;52.272;8.052;2023-04-06T01:28:25;6.80;68.30
40960;DHT22;27842;52.272;8.052;2023-04-06T01:30:51;6.80;68.30
40960;DHT22;27842;52.272;8.052;2023-04-06T01:33:16;6.80;68.30
40960;DHT22;27842;52.272;8.052;2023-04-06T01:35:42;6.70;68.30
40960;DHT22;27842;52.272;8.052;2023-04-06T01:38:08;6.80;68.30
40960;DHT22;27842;52.272;8.052;2023-04-06T01:40:33;6.70;68.20
40960;DHT22;27842;52.272;8.052;2023-04-06T01:42:59;6.70;68.40
40960;DHT22;27842;52.272;8.052;2023-04-06T01:45:24;6.70;68.40
40960;DHT22;27842;52.272;8.052;2023-04-06T01:47:50;6.60;68.40
40960;DHT22;27842;52.272;8.052;2023-04-06T01:50:16;6.70;68.50
40960;DHT22;27842;52.272;8.052;2023-04-06T01:52:41;6.60;68.40
40960;DHT22;27842;52.272;8.052;2023-04-06T01:55:07;6.60;68.50
40960;DHT22;27842;52.272;8.052;2023-04-06T01:57:33;6.60;68.60
40960;DHT22;27842;52.272;8.052;2023-04-06T01:59:58;6.50;68.70
40960;DHT22;27842;52.272;8.052;2023-04-06T02:02:24;6.50;68.80
40960;DHT22;27842;52.272;8.052;2023-04-06T02:04:50;6.50;68.90
40960;DHT22;27842;52.272;8.052;2023-04-06T02:07:15;6.50;69.00
40960;DHT22;27842;52.272;8.052;2023-04-06T02:09:41;6.40;69.00
40960;DHT22;27842;52.272;8.052;2023-04-06T02:12:07;6.50;69.00
40960;DHT22;27842;52.272;8.052;2023-04-06T02:14:32;6.50;69.00
40960;DHT22;27842;52.272;8.052;2023-04-06T02:16:58;6.50;68.90
40960;DHT22;27842;52.272;8.052;2023-04-06T02:19:23;6.50;69.00
40960;DHT22;27842;52.272;8.052;2023-04-06T02:21:49;6.50;69.00
40960;DHT22;27842;52.272;8.052;2023-04-06T02:24:15;6.40;69.70
40960;DHT22;27842;52.272;8.052;2023-04-06T02:26:40;6.40;69.10
40960;DHT22;27842;52.272;8.052;2023-04-06T02:29:06;6.40;69.10
40960;DHT22;27842;52.272;8.052;2023-04-06T02:31:32;6.40;69.10
40960;DHT22;27842;52.272;8.052;2023-04-06T02:33:58;6.30;69.30
40960;DHT22;27842;52.272;8.052;2023-04-06T02:36:23;6.30;69.20
40960;DHT22;27842;52.272;8.052;2023-04-06T02:38:49;6.30;69.30
40960;DHT22;27842;52.272;8.052;2023-04-06T02:41:14;6.20;69.40
40960;DHT22;27842;52.272;8.052;2023-04-06T02:43:40;6.20;70.20
40960;DHT22;27842;52.272;8.052;2023-04-06T02:46:06;6.10;69.60
40960;DHT22;27842;52.272;8.052;2023-04-06T02:48:31;6.10;69.70
40960;DHT22;27842;52.272;8.052;2023-04-06T02:50:57;6.00;69.90
40960;DHT22;27842;52.272;8.052;2023-04-06T02:53:22;5.90;70.20
40960;DHT22;27842;52.272;8.052;2023-04-06T02:55:48;5.90;70.20
40960;DHT22;27842;52.272;8.052;2023-04-06T02:58:13;5.80;70.40
40960;DHT22;27842;52.272;8.052;2023-04-06T03:00:39;5.80;70.50
40960;DHT22;27842;52.272;8.052;2023-04-06T03:03:05;5.70;70.90
40960;DHT22;27842;52.272;8.052;2023-04-06T03:05:31;5.60;71.00
40960;DHT22;27842;52.272;8.052;2023-04-06T03:07:56;5.60;71.10
40960;DHT22;27842;52.272;8.052;2023-04-06T03:10:22;5.50;71.10
40960;DHT22;27842;52.272;8.052;2023-04-06T03:12:47;5.60;71.20
40960;DHT22;27842;52.272;8.052;2023-04-06T03:15:13;5.60;71.00
40960;DHT22;27842;52.272;8.052;2023-04-06T03:17:39;5.60;70.90
40960;DHT22;27842;52.272;8.052;2023-04-06T03:20:05;5.70;70.90
40960;DHT22;27842;52.272;8.052;2023-04-06T03:22:30;5.70;70.90
40960;DHT22;27842;52.272;8.052;2023-04-06T03:24:56;5.70;70.90
40960;DHT22;27842;52.272;8.052;2023-04-06T03:27:21;5.70;70.90
40960;DHT22;27842;52.272;8.052;2023-04-06T03:29:47;5.70;70.90
40960;DHT22;27842;52.272;8.052;2023-04-06T03:32:12;5.70;70.90
40960;DHT22;27842;52.272;8.052;2023-04-06T03:34:38;5.70;70.90
40960;DHT22;27842;52.272;8.052;2023-04-06T03:37:04;5.70;70.80
40960;DHT22;27842;52.272;8.052;2023-04-06T03:39:30;5.70;70.90
40960;DHT22;27842;52.272;8.052;2023-04-06T03:41:56;5.70;70.90
40960;DHT22;27842;52.272;8.052;2023-04-06T03:44:21;5.70;70.90
40960;DHT22;27842;52.272;8.052;2023-04-06T03:46:47;5.70;70.90
40960;DHT22;27842;52.272;8.052;2023-04-06T03:49:12;5.60;70.90
40960;DHT22;27842;52.272;8.052;2023-04-06T03:51:38;5.70;71.00
40960;DHT22;27842;52.272;8.052;2023-04-06T03:54:04;5.60;70.90
40960;DHT22;27842;52.272;8.052;2023-04-06T03:56:29;5.60;71.00
40960;DHT22;27842;52.272;8.052;2023-04-06T03:58:55;5.60;71.10
40960;DHT22;27842;52.272;8.052;2023-04-06T04:01:21;5.60;71.10
40960;DHT22;27842;52.272;8.052;2023-04-06T04:03:47;5.60;71.10
40960;DHT22;27842;52.272;8.052;2023-04-06T04:06:12;5.50;71.10
40960;DHT22;27842;52.272;8.052;2023-04-06T04:08:38;5.50;71.20
40960;DHT22;27842;52.272;8.052;2023-04-06T04:11:03;5.50;71.30
40960;DHT22;27842;52.272;8.052;2023-04-06T04:13:29;5.40;71.30
40960;DHT22;27842;52.272;8.052;2023-04-06T04:15:55;5.40;71.50
40960;DHT22;27842;52.272;8.052;2023-04-06T04:18:21;5.40;71.50
40960;DHT22;27842;52.272;8.052;2023-04-06T04:20:47;5.30;71.50
40960;DHT22;27842;52.272;8.052;2023-04-06T04:23:12;5.30;71.70
40960;DHT22;27842;52.272;8.052;2023-04-06T04:25:38;5.20;71.70
40960;DHT22;27842;52.272;8.052;2023-04-06T04:28:04;5.10;72.00
40960;DHT22;27842;52.272;8.052;2023-04-06T04:30:29;5.10;72.10
40960;DHT22;27842;52.272;8.052;2023-04-06T04:32:55;5.20;72.20
40960;DHT22;27842;52.272;8.052;2023-04-06T04:35:20;5.00;72.30
40960;DHT22;27842;52.272;8.052;2023-04-06T04:37:46;5.00;72.40
40960;DHT22;27842;52.272;8.052;2023-04-06T04:40:12;5.00;72.60
40960;DHT22;27842;52.272;8.052;2023-04-06T04:42:38;4.90;72.70
40960;DHT22;27842;52.272;8.052;2023-04-06T04:45:03;4.80;73.00
40960;DHT22;27842;52.272;8.052;2023-04-06T04:47:29;4.70;73.10
40960;DHT22;27842;52.272;8.052;2023-04-06T04:49:55;4.80;73.10
40960;DHT22;27842;52.272;8.052;2023-04-06T04:52:20;4.80;73.10
40960;DHT22;27842;52.272;8.052;2023-04-06T04:54:46;4.80;73.10
40960;DHT22;27842;52.272;8.052;2023-04-06T04:57:12;4.80;73.10
40960;DHT22;27842;52.272;8.052;2023-04-06T04:59:38;4.90;73.00
40960;DHT22;27842;52.272;8.052;2023-04-06T05:02:03;4.90;73.00
40960;DHT22;27842;52.272;8.052;2023-04-06T05:04:29;4.90;72.90
40960;DHT22;27842;52.272;8.052;2023-04-06T05:07:06;4.90;73.00
40960;DHT22;27842;52.272;8.052;2023-04-06T05:09:33;4.80;73.00
40960;DHT22;27842;52.272;8.052;2023-04-06T05:11:59;4.90;73.10
40960;DHT22;27842;52.272;8.052;2023-04-06T05:14:26;4.90;73.00
40960;DHT22;27842;52.272;8.052;2023-04-06T05:16:52;4.90;72.90
40960;DHT22;27842;52.272;8.052;2023-04-06T05:19:17;4.90;73.00
40960;DHT22;27842;52.272;8.052;2023-04-06T05:21:43;4.90;73.00
40960;DHT22;27842;52.272;8.052;2023-04-06T05:24:09;4.90;73.10
40960;DHT22;27842;52.272;8.052;2023-04-06T05:26:34;4.90;73.10
40960;DHT22;27842;52.272;8.052;2023-04-06T05:29:00;4.90;73.00
40960;DHT22;27842;52.272;8.052;2023-04-06T05:31:26;4.90;72.90
40960;DHT22;27842;52.272;8.052;2023-04-06T05:33:52;4.90;73.10
40960;DHT22;27842;52.272;8.052;2023-04-06T05:36:17;4.80;73.10
40960;DHT22;27842;52.272;8.052;2023-04-06T05:38:43;4.80;73.30
40960;DHT22;27842;52.272;8.052;2023-04-06T05:41:09;4.80;73.50
40960;DHT22;27842;52.272;8.052;2023-04-06T05:43:34;4.80;73.60
40960;DHT22;27842;52.272;8.052;2023-04-06T05:46:00;4.80;73.70
40960;DHT22;27842;52.272;8.052;2023-04-06T05:48:26;4.80;73.70
40960;DHT22;27842;52.272;8.052;2023-04-06T05:50:54;4.80;73.80
40960;DHT22;27842;52.272;8.052;2023-04-06T05:53:20;4.70;74.00
40960;DHT22;27842;52.272;8.052;2023-04-06T05:55:46;4.70;74.10
40960;DHT22;27842;52.272;8.052;2023-04-06T05:58:12;4.70;74.20
40960;DHT22;27842;52.272;8.052;2023-04-06T06:00:38;4.60;74.30
40960;DHT22;27842;52.272;8.052;2023-04-06T06:03:03;4.70;74.30
40960;DHT22;27842;52.272;8.052;2023-04-06T06:05:31;4.70;74.40
40960;DHT22;27842;52.272;8.052;2023-04-06T06:07:56;4.70;74.40
40960;DHT22;27842;52.272;8.052;2023-04-06T06:10:22;4.70;74.40
40960;DHT22;27842;52.272;8.052;2023-04-06T06:12:47;4.70;74.50
40960;DHT22;27842;52.272;8.052;2023-04-06T06:15:13;4.70;74.60
40960;DHT22;27842;52.272;8.052;2023-04-06T06:17:39;4.80;74.70
40960;DHT22;27842;52.272;8.052;2023-04-06T06:20:06;4.80;74.70
40960;DHT22;27842;52.272;8.052;2023-04-06T06:22:32;4.80;75.00
40960;DHT22;27842;52.272;8.052;2023-04-06T06:24:58;4.80;75.10
40960;DHT22;27842;52.272;8.052;2023-04-06T06:27:24;4.90;75.20
40960;DHT22;27842;52.272;8.052;2023-04-06T06:29:49;4.90;75.10
40960;DHT22;27842;52.272;8.052;2023-04-06T06:32:15;5.00;74.90
40960;DHT22;27842;52.272;8.052;2023-04-06T06:34:41;5.10;74.90
40960;DHT22;27842;52.272;8.052;2023-04-06T06:37:06;5.10;74.80
40960;DHT22;27842;52.272;8.052;2023-04-06T06:39:32;5.20;74.70
40960;DHT22;27842;52.272;8.052;2023-04-06T06:41:58;5.10;74.80
40960;DHT22;27842;52.272;8.052;2023-04-06T06:44:26;5.20;74.70
40960;DHT22;27842;52.272;8.052;2023-04-06T06:46:52;5.20;74.70
40960;DHT22;27842;52.272;8.052;2023-04-06T06:49:18;5.20;74.80
40960;DHT22;27842;52.272;8.052;2023-04-06T06:51:44;5.20;75.00
40960;DHT22;27842;52.272;8.052;2023-04-06T06:54:11;5.40;74.90
40960;DHT22;27842;52.272;8.052;2023-04-06T06:56:36;5.40;74.80
40960;DHT22;27842;52.272;8.052;2023-04-06T06:59:03;5.40;74.70
40960;DHT22;27842;52.272;8.052;2023-04-06T07:01:29;5.50;74.70
40960;DHT22;27842;52.272;8.052;2023-04-06T07:03:55;5.60;74.70
40960;DHT22;27842;52.272;8.052;2023-04-06T07:06:20;5.60;74.40
40960;DHT22;27842;52.272;8.052;2023-04-06T07:08:46;5.70;74.50
40960;DHT22;27842;52.272;8.052;2023-04-06T07:11:12;5.80;74.40
40960;DHT22;27842;52.272;8.052;2023-04-06T07:13:37;6.00;74.20
40960;DHT22;27842;52.272;8.052;2023-04-06T07:16:03;6.10;74.00
40960;DHT22;27842;52.272;8.052;2023-04-06T07:18:29;6.30;73.80
40960;DHT22;27842;52.272;8.052;2023-04-06T07:20:55;6.40;73.60
40960;DHT22;27842;52.272;8.052;2023-04-06T07:23:20;6.60;73.40
40960;DHT22;27842;52.272;8.052;2023-04-06T07:25:46;6.70;73.20
40960;DHT22;27842;52.272;8.052;2023-04-06T07:28:12;6.90;72.90
40960;DHT22;27842;52.272;8.052;2023-04-06T07:30:38;7.00;72.60
40960;DHT22;27842;52.272;8.052;2023-04-06T07:33:04;7.20;72.30
40960;DHT22;27842;52.272;8.052;2023-04-06T07:35:30;7.40;71.90
40960;DHT22;27842;52.272;8.052;2023-04-06T07:37:56;7.50;71.60
40960;DHT22;27842;52.272;8.052;2023-04-06T07:40:22;7.60;71.30
40960;DHT22;27842;52.272;8.052;2023-04-06T07:42:48;7.70;71.00
40960;DHT22;27842;52.272;8.052;2023-04-06T07:45:14;7.80;71.10
40960;DHT22;27842;52.272;8.052;2023-04-06T07:47:41;7.90;71.00
40960;DHT22;27842;52.272;8.052;2023-04-06T07:50:06;8.00;70.70
40960;DHT22;27842;52.272;8.052;2023-04-06T07:52:32;8.00;70.70
40960;DHT22;27842;52.272;8.052;2023-04-06T07:54:58;8.10;70.60
40960;DHT22;27842;52.272;8.052;2023-04-06T07:57:24;8.20;70.60
40960;DHT22;27842;52.272;8.052;2023-04-06T07:59:50;8.30;70.60
40960;DHT22;27842;52.272;8.052;2023-04-06T08:02:16;8.40;70.50
40960;DHT22;27842;52.272;8.052;2023-04-06T08:04:41;8.50;70.70
40960;DHT22;27842;52.272;8.052;2023-04-06T08:07:07;8.50;70.40
40960;DHT22;27842;52.272;8.052;2023-04-06T08:09:33;8.60;70.30
40960;DHT22;27842;52.272;8.052;2023-04-06T08:11:58;8.70;69.50
40960;DHT22;27842;52.272;8.052;2023-04-06T08:14:24;8.80;69.90
40960;DHT22;27842;52.272;8.052;2023-04-06T08:16:50;8.90;69.00
40960;DHT22;27842;52.272;8.052;2023-04-06T08:19:18;9.00;69.30
40960;DHT22;27842;52.272;8.052;2023-04-06T08:21:47;9.10;68.80
40960;DHT22;27842;52.272;8.052;2023-04-06T08:24:14;9.10;68.60
40960;DHT22;27842;52.272;8.052;2023-04-06T08:26:40;9.20;67.70
40960;DHT22;27842;52.272;8.052;2023-04-06T08:29:06;9.30;66.40
40960;DHT22;27842;52.272;8.052;2023-04-06T08:31:35;9.30;67.50
40960;DHT22;27842;52.272;8.052;2023-04-06T08:34:01;9.40;67.20
40960;DHT22;27842;52.272;8.052;2023-04-06T08:36:27;9.50;66.60
40960;DHT22;27842;52.272;8.052;2023-04-06T08:38:53;9.60;66.70
40960;DHT22;27842;52.272;8.052;2023-04-06T08:41:19;9.80;66.50
40960;DHT22;27842;52.272;8.052;2023-04-06T08:43:52;9.90;66.20
40960;DHT22;27842;52.272;8.052;2023-04-06T08:46:21;10.00;65.90
40960;DHT22;27842;52.272;8.052;2023-04-06T08:48:47;10.10;65.10
40960;DHT22;27842;52.272;8.052;2023-04-06T08:51:15;10.20;65.70
40960;DHT22;27842;52.272;8.052;2023-04-06T08:53:41;10.40;63.80
40960;DHT22;27842;52.272;8.052;2023-04-06T08:56:07;10.60;64.10
40960;DHT22;27842;52.272;8.052;2023-04-06T08:58:37;10.70;64.60
40960;DHT22;27842;52.272;8.052;2023-04-06T09:01:07;10.80;63.90
40960;DHT22;27842;52.272;8.052;2023-04-06T09:03:38;10.90;63.40
40960;DHT22;27842;52.272;8.052;2023-04-06T09:06:05;11.10;62.90
40960;DHT22;27842;52.272;8.052;2023-04-06T09:08:32;11.10;63.20
40960;DHT22;27842;52.272;8.052;2023-04-06T09:10:58;11.30;63.90
40960;DHT22;27842;52.272;8.052;2023-04-06T09:13:23;11.40;62.40
40960;DHT22;27842;52.272;8.052;2023-04-06T09:16:19;11.50;63.00
40960;DHT22;27842;52.272;8.052;2023-04-06T09:18:45;11.70;57.90
40960;DHT22;27842;52.272;8.052;2023-04-06T09:21:11;11.80;62.20
40960;DHT22;27842;52.272;8.052;2023-04-06T09:23:37;11.80;61.90
40960;DHT22;27842;52.272;8.052;2023-04-06T09:26:16;11.90;61.10
40960;DHT22;27842;52.272;8.052;2023-04-06T09:28:54;12.00;61.00
40960;DHT22;27842;52.272;8.052;2023-04-06T09:31:28;12.00;61.20
40960;DHT22;27842;52.272;8.052;2023-04-06T09:33:55;12.10;60.30
40960;DHT22;27842;52.272;8.052;2023-04-06T09:36:35;12.30;61.60
40960;DHT22;27842;52.272;8.052;2023-04-06T09:39:05;12.40;60.60
40960;DHT22;27842;52.272;8.052;2023-04-06T09:41:33;12.50;60.30
40960;DHT22;27842;52.272;8.052;2023-04-06T09:44:03;12.50;60.30
40960;DHT22;27842;52.272;8.052;2023-04-06T09:46:32;12.50;60.00
40960;DHT22;27842;52.272;8.052;2023-04-06T09:49:02;12.50;59.30
40960;DHT22;27842;52.272;8.052;2023-04-06T09:51:31;12.60;59.50
40960;DHT22;27842;52.272;8.052;2023-04-06T09:53:57;12.50;58.70
40960;DHT22;27842;52.272;8.052;2023-04-06T09:56:33;12.60;59.00
40960;DHT22;27842;52.272;8.052;2023-04-06T09:59:08;12.60;59.80
40960;DHT22;27842;52.272;8.052;2023-04-06T10:01:35;12.60;58.60
40960;DHT22;27842;52.272;8.052;2023-04-06T10:04:44;12.70;59.50
40960;DHT22;27842;52.272;8.052;2023-04-06T10:07:14;12.70;55.40
40960;DHT22;27842;52.272;8.052;2023-04-06T10:09:42;12.80;59.50
40960;DHT22;27842;52.272;8.052;2023-04-06T10:12:10;12.80;59.40
40960;DHT22;27842;52.272;8.052;2023-04-06T10:14:38;12.80;58.80
40960;DHT22;27842;52.272;8.052;2023-04-06T10:17:04;12.90;59.70
40960;DHT22;27842;52.272;8.052;2023-04-06T10:22:41;13.00;59.40
40960;DHT22;27842;52.272;8.052;2023-04-06T10:25:08;13.10;56.80
40960;DHT22;27842;52.272;8.052;2023-04-06T10:27:34;13.20;59.20
40960;DHT22;27842;52.272;8.052;2023-04-06T10:30:06;13.20;58.80
40960;DHT22;27842;52.272;8.052;2023-04-06T10:32:37;13.20;58.90
40960;DHT22;27842;52.272;8.052;2023-04-06T10:35:10;13.20;57.90
40960;DHT22;27842;52.272;8.052;2023-04-06T10:38:00;13.20;58.40
40960;DHT22;27842;52.272;8.052;2023-04-06T10:40:25;13.20;57.90
40960;DHT22;27842;52.272;8.052;2023-04-06T10:42:53;13.30;58.90
40960;DHT22;27842;52.272;8.052;2023-04-06T10:45:24;13.30;58.30
40960;DHT22;27842;52.272;8.052;2023-04-06T10:47:53;13.30;57.60
40960;DHT22;27842;52.272;8.052;2023-04-06T10:50:19;13.40;58.10
40960;DHT22;27842;52.272;8.052;2023-04-06T10:52:45;13.40;57.20
40960;DHT22;27842;52.272;8.052;2023-04-06T10:55:13;13.30;56.60
40960;DHT22;27842;52.272;8.052;2023-04-06T10:57:40;13.30;57.50
40960;DHT22;27842;52.272;8.052;2023-04-06T11:00:07;13.30;57.40
40960;DHT22;27842;52.272;8.052;2023-04-06T11:02:35;13.30;57.50
40960;DHT22;27842;52.272;8.052;2023-04-06T11:05:04;13.40;58.20
40960;DHT22;27842;52.272;8.052;2023-04-06T11:07:30;13.40;57.80
40960;DHT22;27842;52.272;8.052;2023-04-06T11:09:56;13.50;57.40
40960;DHT22;27842;52.272;8.052;2023-04-06T11:12:23;13.40;57.40
40960;DHT22;27842;52.272;8.052;2023-04-06T11:14:59;13.50;57.30
40960;DHT22;27842;52.272;8.052;2023-04-06T11:17:38;13.50;56.60
40960;DHT22;27842;52.272;8.052;2023-04-06T11:20:04;13.50;56.30
40960;DHT22;27842;52.272;8.052;2023-04-06T11:22:35;13.50;57.00
40960;DHT22;27842;52.272;8.052;2023-04-06T11:25:07;13.60;57.60
40960;DHT22;27842;52.272;8.052;2023-04-06T11:27:34;13.70;56.60
40960;DHT22;27842;52.272;8.052;2023-04-06T11:30:01;13.70;57.40
40960;DHT22;27842;52.272;8.052;2023-04-06T11:32:26;13.80;57.80
40960;DHT22;27842;52.272;8.052;2023-04-06T11:34:52;13.80;57.60
40960;DHT22;27842;52.272;8.052;2023-04-06T11:37:18;13.90;57.10
40960;DHT22;27842;52.272;8.052;2023-04-06T11:39:48;14.00;57.30
40960;DHT22;27842;52.272;8.052;2023-04-06T11:42:22;14.00;56.80
40960;DHT22;27842;52.272;8.052;2023-04-06T11:44:50;14.20;56.60
40960;DHT22;27842;52.272;8.052;2023-04-06T11:47:16;14.20;55.80
40960;DHT22;27842;52.272;8.052;2023-04-06T11:49:43;14.30;56.40
40960;DHT22;27842;52.272;8.052;2023-04-06T11:52:22;14.40;56.40
40960;DHT22;27842;52.272;8.052;2023-04-06T11:54:49;14.50;55.80
40960;DHT22;27842;52.272;8.052;2023-04-06T11:57:16;14.60;55.90
40960;DHT22;27842;52.272;8.052;2023-04-06T11:59:42;14.60;55.60
40960;DHT22;27842;52.272;8.052;2023-04-06T12:02:08;14.70;56.30
40960;DHT22;27842;52.272;8.052;2023-04-06T12:04:34;14.80;56.30
40960;DHT22;27842;52.272;8.052;2023-04-06T12:07:00;14.90;54.90
40960;DHT22;27842;52.272;8.052;2023-04-06T12:09:25;15.00;55.60
40960;DHT22;27842;52.272;8.052;2023-04-06T12:11:51;15.00;55.60
40960;DHT22;27842;52.272;8.052;2023-04-06T12:14:17;15.10;55.50
40960;DHT22;27842;52.272;8.052;2023-04-06T12:16:42;15.10;55.70
40960;DHT22;27842;52.272;8.052;2023-04-06T12:19:09;15.30;56.20
40960;DHT22;27842;52.272;8.052;2023-04-06T12:21:35;15.40;53.90
40960;DHT22;27842;52.272;8.052;2023-04-06T12:24:03;15.50;53.20
40960;DHT22;27842;52.272;8.052;2023-04-06T12:26:30;15.50;54.30
40960;DHT22;27842;52.272;8.052;2023-04-06T12:28:56;15.50;53.90
40960;DHT22;27842;52.272;8.052;2023-04-06T12:31:22;15.50;53.70
40960;DHT22;27842;52.272;8.052;2023-04-06T12:33:51;15.50;53.10
40960;DHT22;27842;52.272;8.052;2023-04-06T12:36:18;15.60;52.80
40960;DHT22;27842;52.272;8.052;2023-04-06T12:38:48;15.60;51.90
40960;DHT22;27842;52.272;8.052;2023-04-06T12:41:14;15.80;53.40
40960;DHT22;27842;52.272;8.052;2023-04-06T12:43:41;15.80;52.00
40960;DHT22;27842;52.272;8.052;2023-04-06T12:46:07;15.90;52.90
40960;DHT22;27842;52.272;8.052;2023-04-06T12:48:33;15.80;53.40
40960;DHT22;27842;52.272;8.052;2023-04-06T12:51:04;15.80;53.20
40960;DHT22;27842;52.272;8.052;2023-04-06T12:53:30;15.80;52.60
40960;DHT22;27842;52.272;8.052;2023-04-06T12:55:57;15.80;53.40
40960;DHT22;27842;52.272;8.052;2023-04-06T12:58:23;15.70;53.30
40960;DHT22;27842;52.272;8.052;2023-04-06T13:00:51;15.70;53.70
40960;DHT22;27842;52.272;8.052;2023-04-06T13:03:20;15.60;53.60
40960;DHT22;27842;52.272;8.052;2023-04-06T13:05:47;15.50;53.40
40960;DHT22;27842;52.272;8.052;2023-04-06T13:08:14;15.40;54.10
40960;DHT22;27842;52.272;8.052;2023-04-06T13:10:44;15.30;53.80
40960;DHT22;27842;52.272;8.052;2023-04-06T13:13:09;15.30;54.50
40960;DHT22;27842;52.272;8.052;2023-04-06T13:15:36;15.30;54.20
40960;DHT22;27842;52.272;8.052;2023-04-06T13:18:02;15.20;53.90
40960;DHT22;27842;52.272;8.052;2023-04-06T13:20:28;15.20;53.70
40960;DHT22;27842;52.272;8.052;2023-04-06T13:22:53;15.10;53.50
40960;DHT22;27842;52.272;8.052;2023-04-06T13:25:20;15.20;53.80
40960;DHT22;27842;52.272;8.052;2023-04-06T13:27:45;15.20;53.40
40960;DHT22;27842;52.272;8.052;2023-04-06T13:30:13;15.30;52.80
40960;DHT22;27842;52.272;8.052;2023-04-06T13:32:39;15.40;53.30
40960;DHT22;27842;52.272;8.052;2023-04-06T13:35:05;15.40;53.40
40960;DHT22;27842;52.272;8.052;2023-04-06T13:37:31;15.50;53.50
40960;DHT22;27842;52.272;8.052;2023-04-06T13:39:57;15.60;52.70
40960;DHT22;27842;52.272;8.052;2023-04-06T13:42:23;15.60;52.10
40960;DHT22;27842;52.272;8.052;2023-04-06T13:44:48;15.60;52.20
40960;DHT22;27842;52.272;8.052;2023-04-06T13:47:16;15.50;52.30
40960;DHT22;27842;52.272;8.052;2023-04-06T13:49:42;15.40;52.60
40960;DHT22;27842;52.272;8.052;2023-04-06T13:52:07;15.40;52.20
40960;DHT22;27842;52.272;8.052;2023-04-06T13:54:35;15.40;52.80
40960;DHT22;27842;52.272;8.052;2023-04-06T13:57:01;15.30;52.50
40960;DHT22;27842;52.272;8.052;2023-04-06T13:59:32;15.30;52.80
40960;DHT22;27842;52.272;8.052;2023-04-06T14:01:58;15.20;52.50
40960;DHT22;27842;52.272;8.052;2023-04-06T14:04:24;15.20;52.70
40960;DHT22;27842;52.272;8.052;2023-04-06T14:06:49;15.30;52.40
40960;DHT22;27842;52.272;8.052;2023-04-06T14:09:15;15.20;52.70
40960;DHT22;27842;52.272;8.052;2023-04-06T14:11:40;15.20;53.20
40960;DHT22;27842;52.272;8.052;2023-04-06T14:14:06;15.20;53.30
40960;DHT22;27842;52.272;8.052;2023-04-06T14:16:32;15.30;53.60
40960;DHT22;27842;52.272;8.052;2023-04-06T14:18:58;15.30;54.30
40960;DHT22;27842;52.272;8.052;2023-04-06T14:21:24;15.30;53.50
40960;DHT22;27842;52.272;8.052;2023-04-06T14:23:50;15.30;52.80
40960;DHT22;27842;52.272;8.052;2023-04-06T14:26:16;15.30;53.40
40960;DHT22;27842;52.272;8.052;2023-04-06T14:28:42;15.40;52.30
40960;DHT22;27842;52.272;8.052;2023-04-06T14:31:12;15.50;53.30
40960;DHT22;27842;52.272;8.052;2023-04-06T14:33:39;15.60;50.70
40960;DHT22;27842;52.272;8.052;2023-04-06T14:36:06;15.70;52.10
40960;DHT22;27842;52.272;8.052;2023-04-06T14:38:32;15.70;51.10
40960;DHT22;27842;52.272;8.052;2023-04-06T14:40:58;15.70;51.20
40960;DHT22;27842;52.272;8.052;2023-04-06T14:43:23;15.70;50.30
40960;DHT22;27842;52.272;8.052;2023-04-06T14:45:49;15.70;50.40
40960;DHT22;27842;52.272;8.052;2023-04-06T14:48:15;15.70;50.20
40960;DHT22;27842;52.272;8.052;2023-04-06T14:50:52;15.50;50.30
40960;DHT22;27842;52.272;8.052;2023-04-06T14:53:18;15.50;50.90
40960;DHT22;27842;52.272;8.052;2023-04-06T14:55:44;15.50;51.00
40960;DHT22;27842;52.272;8.052;2023-04-06T14:58:10;15.40;50.80
40960;DHT22;27842;52.272;8.052;2023-04-06T15:00:37;15.50;50.10
40960;DHT22;27842;52.272;8.052;2023-04-06T15:03:03;15.50;50.20
40960;DHT22;27842;52.272;8.052;2023-04-06T15:05:29;15.40;50.50
40960;DHT22;27842;52.272;8.052;2023-04-06T15:07:56;15.30;50.30
40960;DHT22;27842;52.272;8.052;2023-04-06T15:10:21;15.20;50.70
40960;DHT22;27842;52.272;8.052;2023-04-06T15:12:47;15.10;51.50
40960;DHT22;27842;52.272;8.052;2023-04-06T15:15:12;15.10;50.80
40960;DHT22;27842;52.272;8.052;2023-04-06T15:17:41;15.10;49.70
40960;DHT22;27842;52.272;8.052;2023-04-06T15:20:07;15.10;52.10
40960;DHT22;27842;52.272;8.052;2023-04-06T15:22:33;15.00;51.90
40960;DHT22;27842;52.272;8.052;2023-04-06T15:24:58;15.00;52.10
40960;DHT22;27842;52.272;8.052;2023-04-06T15:27:24;14.80;50.70
40960;DHT22;27842;52.272;8.052;2023-04-06T15:29:50;14.90;51.60
40960;DHT22;27842;52.272;8.052;2023-04-06T15:32:16;14.80;51.50
40960;DHT22;27842;52.272;8.052;2023-04-06T15:34:41;14.90;51.50
40960;DHT22;27842;52.272;8.052;2023-04-06T15:37:07;14.80;51.60
40960;DHT22;27842;52.272;8.052;2023-04-06T15:39:33;14.80;51.70